EHDL

Deelen Air Base Airport

Arnhem, The Netherlands
METAR EHDL 190055Z AUTO 15011KT 090V210 9999 SCT083 BKN093 OVC099 05/02 Q1009 BLU
Observed Flight Rules
Dec-19 @ 00:55 UTC (27 minutes ago) Visual Flight Rules
Wind Visibility Clouds
150° at 11 knots 10,000+ meters
  • Scattered at 8,300' AGL
  • Broken at 9,300' AGL
  • Overcast at 9,900' AGL
Temperatures Readings
Current 5°C / 41°F
Dewpoint 2°C / 36°F
Humidity 81%
Altimeter 29.79" Hg
Pressure 1009 hPa
Elevation 52
METAR EHDL 190055Z AUTO 15011KT 090V210 9999 SCT083 BKN093 OVC099 05/02 Q1009 BLU
Observed Flight Rules
Dec-19 @ 00:55 UTC
(27 minutes ago)
VFR
Wind Visibility
150° at 11 knots 10,000+ meters
Clouds
  • Scattered at 8,300' AGL
  • Broken at 9,300' AGL
  • Overcast at 9,900' AGL
Temperature Dewpoint
5°C / 41°F 2°C / 36°F
Humidity Altimeter Pressure
81% 29.79" Hg 1009 hPa